createdAt,value
2018-12-17T00:01:17.419Z,94.40
2018-12-17T00:03:47.050Z,94.40
2018-12-17T00:06:16.577Z,94.40
2018-12-17T00:08:44.413Z,94.40
2018-12-17T00:11:12.078Z,94.50
2018-12-17T00:13:39.597Z,94.50
2018-12-17T00:16:07.468Z,94.50
2018-12-17T00:18:35.298Z,94.50
2018-12-17T00:21:02.798Z,94.50
2018-12-17T00:23:30.241Z,94.50
2018-12-17T00:25:57.788Z,94.50
2018-12-17T00:28:25.638Z,94.50
2018-12-17T00:30:53.175Z,94.60
2018-12-17T00:33:20.919Z,94.60
2018-12-17T00:35:48.389Z,94.60
2018-12-17T00:38:16.350Z,94.60
2018-12-17T00:40:43.897Z,94.60
2018-12-17T00:43:11.402Z,94.60
2018-12-17T00:45:38.964Z,94.70
2018-12-17T00:48:06.483Z,94.70
2018-12-17T00:50:34.238Z,94.70
2018-12-17T00:53:01.814Z,94.70
2018-12-17T00:55:29.335Z,94.70
2018-12-17T00:57:56.847Z,95.00
2018-12-17T01:00:24.339Z,94.80
2018-12-17T01:02:51.956Z,94.80
2018-12-17T01:05:20.864Z,94.80
2018-12-17T01:07:48.605Z,94.80
2018-12-17T01:10:16.353Z,95.00
2018-12-17T01:12:44.213Z,94.90
2018-12-17T01:15:11.775Z,94.90
2018-12-17T01:17:39.528Z,94.90
2018-12-17T01:20:07.279Z,94.90
2018-12-17T01:22:35.914Z,94.90
2018-12-17T01:25:03.542Z,95.00
2018-12-17T01:27:31.019Z,95.00
2018-12-17T01:29:58.522Z,95.00
2018-12-17T01:32:26.012Z,95.00
2018-12-17T01:34:53.745Z,95.00
2018-12-17T01:37:21.209Z,95.10
2018-12-17T01:39:48.729Z,95.10
2018-12-17T01:42:16.434Z,95.40
2018-12-17T01:44:43.993Z,95.10
2018-12-17T01:47:11.533Z,95.20
2018-12-17T01:49:39.056Z,95.50
2018-12-17T01:52:06.837Z,95.20
2018-12-17T01:54:34.377Z,95.30
2018-12-17T01:57:02.046Z,95.30
2018-12-17T01:59:29.652Z,95.30
2018-12-17T02:02:04.137Z,95.30
2018-12-17T02:04:31.647Z,95.30
2018-12-17T02:06:59.122Z,95.30
2018-12-17T02:09:26.614Z,95.30
2018-12-17T02:11:54.096Z,95.40
2018-12-17T02:14:21.641Z,95.30
2018-12-17T02:16:49.711Z,95.40
2018-12-17T02:19:17.197Z,95.40
2018-12-17T02:21:44.705Z,95.40
2018-12-17T02:24:12.281Z,95.40
2018-12-17T02:26:39.779Z,95.40
2018-12-17T02:29:07.654Z,95.40
2018-12-17T02:31:35.137Z,95.40
2018-12-17T02:34:02.830Z,95.50
2018-12-17T02:36:30.634Z,95.50
2018-12-17T02:38:58.180Z,95.50
2018-12-17T02:41:25.872Z,95.70
2018-12-17T02:43:53.607Z,95.50
2018-12-17T02:46:21.253Z,95.50
2018-12-17T02:48:48.786Z,95.60
2018-12-17T02:51:16.292Z,95.60
2018-12-17T02:53:44.432Z,95.60
2018-12-17T02:56:12.098Z,95.60
2018-12-17T02:58:43.950Z,95.60
2018-12-17T03:04:38.050Z,95.70
2018-12-17T03:07:05.557Z,95.70
2018-12-17T03:09:33.089Z,95.70
2018-12-17T03:12:00.591Z,96.00
2018-12-17T03:14:28.436Z,95.80
2018-12-17T03:16:55.909Z,95.80
2018-12-17T03:19:23.380Z,95.90
2018-12-17T03:21:51.085Z,95.90
2018-12-17T03:24:21.561Z,95.90
2018-12-17T03:26:49.093Z,95.90
2018-12-17T03:29:16.576Z,95.90
2018-12-17T03:31:44.381Z,95.90
2018-12-17T03:34:11.871Z,95.90
2018-12-17T03:36:39.434Z,96.00
2018-12-17T03:39:07.222Z,96.00
2018-12-17T03:41:36.893Z,96.00
2018-12-17T03:44:07.380Z,96.00
2018-12-17T03:46:34.866Z,96.00
2018-12-17T03:49:02.827Z,96.00
2018-12-17T03:51:30.461Z,96.00
2018-12-17T03:53:57.917Z,96.00
2018-12-17T03:56:27.302Z,96.10
2018-12-17T03:58:59.275Z,96.10
2018-12-17T04:01:24.430Z,96.10
2018-12-17T04:03:51.969Z,96.10
2018-12-17T04:06:19.432Z,96.10
2018-12-17T04:08:47.158Z,96.10
2018-12-17T04:11:14.732Z,96.20
2018-12-17T04:13:42.370Z,96.20
2018-12-17T04:16:09.856Z,96.20
2018-12-17T04:18:37.421Z,96.20
2018-12-17T04:21:05.044Z,96.20
2018-12-17T04:23:32.556Z,96.20
2018-12-17T04:26:09.157Z,96.20
2018-12-17T04:28:36.645Z,96.20
2018-12-17T04:31:04.210Z,96.20
2018-12-17T04:33:31.788Z,96.20
2018-12-17T04:35:59.333Z,96.30
2018-12-17T04:38:26.857Z,96.20
2018-12-17T04:40:54.350Z,96.30
2018-12-17T04:43:21.901Z,96.30
2018-12-17T04:45:49.561Z,96.30
2018-12-17T04:48:17.088Z,96.30
2018-12-17T04:50:44.592Z,96.30
2018-12-17T04:53:12.315Z,96.30
2018-12-17T04:55:40.010Z,96.40
2018-12-17T04:58:07.646Z,96.40
2018-12-17T05:00:35.169Z,96.40
2018-12-17T05:03:03.026Z,96.40
2018-12-17T05:05:30.535Z,96.40
2018-12-17T05:07:58.204Z,96.40
2018-12-17T05:10:25.742Z,96.40
2018-12-17T05:12:53.220Z,96.40
2018-12-17T05:15:20.830Z,96.40
2018-12-17T05:17:57.207Z,96.50
2018-12-17T05:20:25.477Z,96.40
2018-12-17T05:22:53.015Z,96.40
2018-12-17T05:25:20.781Z,96.40
2018-12-17T05:27:48.517Z,96.50
2018-12-17T05:30:16.382Z,96.50
2018-12-17T05:32:43.999Z,96.50
2018-12-17T05:35:11.586Z,96.50
2018-12-17T05:37:41.612Z,96.50
2018-12-17T05:40:09.250Z,96.50
2018-12-17T05:42:37.088Z,96.50
2018-12-17T05:45:05.151Z,96.50
2018-12-17T05:47:32.636Z,96.60
2018-12-17T05:50:00.343Z,96.60
2018-12-17T05:52:27.910Z,96.60
2018-12-17T05:54:55.551Z,96.60
2018-12-17T05:57:23.050Z,96.60
2018-12-17T05:59:50.969Z,96.60
2018-12-17T06:02:18.434Z,96.60
2018-12-17T06:04:45.970Z,96.70
2018-12-17T06:07:13.660Z,96.70
2018-12-17T06:09:41.298Z,96.70
2018-12-17T06:12:09.810Z,96.70
2018-12-17T06:14:37.482Z,96.70
2018-12-17T06:17:04.995Z,96.80
2018-12-17T06:19:32.530Z,96.80
2018-12-17T06:22:00.167Z,96.80
2018-12-17T06:24:28.842Z,96.80
2018-12-17T06:26:56.369Z,96.80
2018-12-17T06:29:23.853Z,96.80
2018-12-17T06:31:51.327Z,96.90
2018-12-17T06:34:18.788Z,96.90
2018-12-17T06:36:46.237Z,96.90
2018-12-17T06:39:14.894Z,96.90
2018-12-17T06:41:42.573Z,96.90
2018-12-17T06:44:10.380Z,96.90
2018-12-17T06:46:37.868Z,96.90
2018-12-17T06:49:05.377Z,96.90
2018-12-17T06:51:33.522Z,96.90
2018-12-17T06:54:01.028Z,97.00
2018-12-17T06:56:28.497Z,97.00
2018-12-17T06:58:56.057Z,97.00
2018-12-17T07:01:23.665Z,97.00
2018-12-17T07:03:51.308Z,97.10
2018-12-17T07:06:18.965Z,97.00
2018-12-17T07:08:46.425Z,97.00
2018-12-17T07:11:14.412Z,97.10
2018-12-17T07:13:41.985Z,97.10
2018-12-17T07:16:09.548Z,97.10
2018-12-17T07:18:37.340Z,97.10
2018-12-17T07:21:04.865Z,97.10
2018-12-17T07:23:32.377Z,97.20
2018-12-17T07:25:59.825Z,97.20
2018-12-17T07:28:27.466Z,97.20
2018-12-17T07:30:54.982Z,97.20
2018-12-17T07:33:22.921Z,97.20
2018-12-17T07:35:50.389Z,97.20
2018-12-17T07:38:17.861Z,97.20
2018-12-17T07:40:45.313Z,97.20
2018-12-17T07:43:12.913Z,97.20
2018-12-17T07:45:40.457Z,97.20
2018-12-17T07:48:08.206Z,97.20
2018-12-17T07:50:35.728Z,97.20
2018-12-17T07:53:03.383Z,97.30
2018-12-17T07:55:30.859Z,97.30
2018-12-17T07:57:58.443Z,97.30
2018-12-17T08:00:25.986Z,97.30
2018-12-17T08:02:53.442Z,97.30
2018-12-17T08:05:20.908Z,97.30
2018-12-17T08:07:48.526Z,97.30
2018-12-17T08:10:16.055Z,97.30
2018-12-17T08:12:43.647Z,97.30
2018-12-17T08:15:43.214Z,97.30
2018-12-17T08:18:23.848Z,97.30
2018-12-17T08:23:44.024Z,97.30
2018-12-17T08:26:11.533Z,97.30
2018-12-17T08:28:39.097Z,97.40
2018-12-17T08:31:07.070Z,97.40
2018-12-17T08:33:34.593Z,97.40
2018-12-17T08:36:02.385Z,97.40
2018-12-17T08:38:29.885Z,97.40
2018-12-17T08:40:57.412Z,97.40
2018-12-17T08:43:24.883Z,97.40
2018-12-17T08:45:52.429Z,97.50
2018-12-17T08:48:19.891Z,97.50
2018-12-17T08:50:48.511Z,97.50
2018-12-17T08:53:16.135Z,97.50
2018-12-17T08:55:43.604Z,97.50
2018-12-17T08:58:11.293Z,97.50
2018-12-17T09:00:38.794Z,97.50
2018-12-17T09:03:13.510Z,97.50
2018-12-17T09:05:41.372Z,97.50
2018-12-17T09:08:08.977Z,97.50
2018-12-17T09:10:36.444Z,97.50
2018-12-17T09:13:04.293Z,97.50
2018-12-17T09:15:33.086Z,97.50
2018-12-17T09:18:00.622Z,97.50
2018-12-17T09:20:28.120Z,97.50
2018-12-17T09:22:55.697Z,97.50
2018-12-17T09:25:23.256Z,97.50
2018-12-17T09:27:50.729Z,97.50
2018-12-17T09:30:18.717Z,97.50
2018-12-17T09:32:46.359Z,97.50
2018-12-17T09:35:13.997Z,97.50
2018-12-17T09:37:41.532Z,97.50
2018-12-17T09:40:09.403Z,97.50
2018-12-17T09:42:37.006Z,97.50
2018-12-17T09:45:05.754Z,97.50
2018-12-17T09:47:33.272Z,97.50
2018-12-17T09:50:00.894Z,97.60
2018-12-17T09:52:28.545Z,97.60
2018-12-17T09:54:56.329Z,97.50
2018-12-17T09:57:23.813Z,97.50
2018-12-17T09:59:51.269Z,97.50
2018-12-17T10:02:18.868Z,97.50
2018-12-17T10:04:46.334Z,97.60
2018-12-17T10:07:14.380Z,97.60
2018-12-17T10:09:41.943Z,97.50
2018-12-17T10:12:09.506Z,97.50
2018-12-17T10:14:38.134Z,97.50
2018-12-17T10:17:05.711Z,97.50
2018-12-17T10:19:33.277Z,97.40
2018-12-17T10:22:02.145Z,97.40
2018-12-17T10:24:29.793Z,97.40
2018-12-17T10:26:57.297Z,97.40
2018-12-17T10:29:24.794Z,97.40
2018-12-17T10:31:52.296Z,97.40
2018-12-17T10:34:19.764Z,97.40
2018-12-17T10:36:47.291Z,97.30
2018-12-17T10:39:15.086Z,97.30
2018-12-17T10:41:43.847Z,97.30
2018-12-17T10:44:13.583Z,97.30
2018-12-17T10:46:41.392Z,97.30
2018-12-17T10:49:09.002Z,97.30
2018-12-17T10:51:36.605Z,97.30
2018-12-17T10:54:04.157Z,97.30
2018-12-17T10:56:31.902Z,97.20
2018-12-17T10:58:59.467Z,97.00
2018-12-17T11:01:32.728Z,97.20
2018-12-17T11:04:03.903Z,97.20
2018-12-17T11:06:31.812Z,97.20
2018-12-17T11:08:59.312Z,97.20
2018-12-17T11:11:26.789Z,97.20
2018-12-17T11:13:54.365Z,97.20
2018-12-17T11:16:21.882Z,97.20
2018-12-17T11:18:49.397Z,97.20
2018-12-17T11:21:17.005Z,97.20
2018-12-17T11:23:44.936Z,97.20
2018-12-17T11:26:12.528Z,97.20
2018-12-17T11:28:40.171Z,97.20
2018-12-17T11:31:07.709Z,97.20
2018-12-17T11:33:35.349Z,97.20
2018-12-17T11:36:02.977Z,97.20
2018-12-17T11:38:30.537Z,97.20
2018-12-17T11:40:58.153Z,97.20
2018-12-17T11:43:25.644Z,97.20
2018-12-17T11:45:53.529Z,97.20
2018-12-17T11:48:21.290Z,97.20
2018-12-17T11:50:48.875Z,97.10
2018-12-17T11:53:16.728Z,97.10
2018-12-17T11:55:44.200Z,97.10
2018-12-17T11:58:13.363Z,97.10
2018-12-17T12:00:56.106Z,97.10
2018-12-17T12:03:24.009Z,97.20
2018-12-17T12:05:51.838Z,97.10
2018-12-17T12:08:19.346Z,97.10
2018-12-17T12:10:46.949Z,97.10
2018-12-17T12:13:14.531Z,97.10
2018-12-17T12:15:42.151Z,97.00
2018-12-17T12:18:09.926Z,97.00
2018-12-17T12:20:37.517Z,97.00
2018-12-17T12:23:05.557Z,97.00
2018-12-17T12:25:33.110Z,97.00
2018-12-17T12:28:00.897Z,97.00
2018-12-17T12:30:28.381Z,97.00
2018-12-17T12:32:56.010Z,97.00
2018-12-17T12:35:24.913Z,97.00
2018-12-17T12:37:52.388Z,96.90
2018-12-17T12:40:19.945Z,96.90
2018-12-17T12:42:51.626Z,97.00
2018-12-17T12:45:17.017Z,97.00
2018-12-17T12:47:44.682Z,97.00
2018-12-17T12:50:12.897Z,96.90
2018-12-17T12:52:41.137Z,97.00
2018-12-17T12:55:08.753Z,96.90
2018-12-17T12:57:36.290Z,96.90
2018-12-17T13:00:07.025Z,96.90
2018-12-17T13:02:34.780Z,96.90
2018-12-17T13:05:02.505Z,96.90
2018-12-17T13:07:30.494Z,96.90
2018-12-17T13:09:57.972Z,96.90
2018-12-17T13:12:25.454Z,96.90
2018-12-17T13:14:52.992Z,97.00
2018-12-17T13:17:26.184Z,96.90
2018-12-17T13:19:53.881Z,97.00
2018-12-17T13:22:22.005Z,97.00
2018-12-17T13:24:49.476Z,97.00
2018-12-17T13:27:17.014Z,97.00
2018-12-17T13:29:44.530Z,97.00
2018-12-17T13:32:12.309Z,97.00
2018-12-17T13:34:40.157Z,97.00
2018-12-17T13:37:07.718Z,97.30
2018-12-17T13:39:35.218Z,97.00
2018-12-17T13:42:02.939Z,97.00
2018-12-17T13:44:30.638Z,97.00
2018-12-17T13:46:58.093Z,97.00
2018-12-17T13:49:25.618Z,97.00
2018-12-17T13:51:58.881Z,97.00
2018-12-17T13:54:26.544Z,97.00
2018-12-17T13:56:54.158Z,97.00
2018-12-17T13:59:21.856Z,97.00
2018-12-17T14:01:51.549Z,97.00
2018-12-17T14:04:18.907Z,97.10
2018-12-17T14:06:47.057Z,97.10
2018-12-17T14:09:16.110Z,97.10
2018-12-17T14:11:46.404Z,97.10
2018-12-17T14:14:14.312Z,97.10
2018-12-17T14:16:47.470Z,97.10
2018-12-17T14:19:21.865Z,97.10
2018-12-17T14:21:57.272Z,97.10
2018-12-17T14:24:24.765Z,97.10
2018-12-17T14:26:52.581Z,97.10
2018-12-17T14:29:20.085Z,97.10
2018-12-17T14:31:47.530Z,97.10
2018-12-17T14:34:15.061Z,97.10
2018-12-17T14:36:42.549Z,97.10
2018-12-17T14:39:10.060Z,97.10
2018-12-17T14:41:37.654Z,97.10
2018-12-17T14:44:10.777Z,97.20
2018-12-17T14:46:44.183Z,97.20
2018-12-17T14:49:11.681Z,97.20
2018-12-17T14:51:39.374Z,97.20
2018-12-17T14:54:08.089Z,97.20
2018-12-17T14:56:35.581Z,97.20
2018-12-17T14:59:03.135Z,97.20
2018-12-17T15:01:35.805Z,97.30
2018-12-17T15:04:01.398Z,97.30
2018-12-17T15:06:28.956Z,97.20
2018-12-17T15:08:56.654Z,97.20
2018-12-17T15:11:24.295Z,97.30
2018-12-17T15:13:52.928Z,97.30
2018-12-17T15:16:20.402Z,97.30
2018-12-17T15:18:47.892Z,97.30
2018-12-17T15:21:15.428Z,97.30
2018-12-17T15:23:42.980Z,97.30
2018-12-17T15:26:10.597Z,97.30
2018-12-17T15:28:38.206Z,97.30
2018-12-17T15:31:06.177Z,97.40
2018-12-17T15:33:36.832Z,97.40
2018-12-17T15:36:04.604Z,97.40
2018-12-17T15:38:32.150Z,97.40
2018-12-17T15:40:59.609Z,97.40
2018-12-17T15:43:27.068Z,97.40
2018-12-17T15:45:54.605Z,97.40
2018-12-17T15:48:22.259Z,97.50
2018-12-17T15:50:49.818Z,97.50
2018-12-17T15:53:17.448Z,97.50
2018-12-17T15:55:45.207Z,97.50
2018-12-17T15:58:12.811Z,97.50
2018-12-17T16:00:40.546Z,97.60
2018-12-17T16:03:08.673Z,97.60
2018-12-17T16:05:36.169Z,97.60
2018-12-17T16:08:03.777Z,97.60
2018-12-17T16:10:31.572Z,97.70
2018-12-17T16:12:59.290Z,97.70
2018-12-17T16:15:26.775Z,97.70
2018-12-17T16:17:54.317Z,97.70
2018-12-17T16:20:21.784Z,97.80
2018-12-17T16:22:49.466Z,97.80
2018-12-17T16:25:17.312Z,97.80
2018-12-17T16:27:44.782Z,97.90
2018-12-17T16:30:13.602Z,97.90
2018-12-17T16:32:41.532Z,97.90
2018-12-17T16:35:09.246Z,97.90
2018-12-17T16:37:36.802Z,98.00
2018-12-17T16:40:05.958Z,98.00
2018-12-17T16:42:33.553Z,98.10
2018-12-17T16:45:01.106Z,98.10
2018-12-17T16:47:28.844Z,98.10
2018-12-17T16:49:56.333Z,98.20
2018-12-17T16:52:23.846Z,98.20
2018-12-17T16:54:51.459Z,98.20
2018-12-17T16:57:18.945Z,98.30
2018-12-17T16:59:46.530Z,98.30
2018-12-17T17:02:13.962Z,98.40
2018-12-17T17:04:41.604Z,98.40
2018-12-17T17:07:09.254Z,98.50
2018-12-17T17:09:36.741Z,98.50
2018-12-17T17:12:04.493Z,98.50
2018-12-17T17:14:32.052Z,98.60
2018-12-17T17:17:00.061Z,98.60
2018-12-17T17:19:27.648Z,98.70
2018-12-17T17:21:55.212Z,98.70
2018-12-17T17:24:22.646Z,98.80
2018-12-17T17:26:50.262Z,98.80
2018-12-17T17:29:17.885Z,98.80
2018-12-17T17:31:45.385Z,98.90
2018-12-17T17:34:12.873Z,98.80
2018-12-17T17:36:40.702Z,98.90
2018-12-17T17:39:08.562Z,99.20
2018-12-17T17:41:36.334Z,98.90
2018-12-17T17:44:04.005Z,98.90
2018-12-17T17:46:31.615Z,99.00
2018-12-17T17:48:59.260Z,99.00
2018-12-17T17:51:26.943Z,99.00
2018-12-17T17:53:54.429Z,99.10
2018-12-17T17:56:21.888Z,99.10
2018-12-17T17:58:49.419Z,99.10
2018-12-17T18:01:17.422Z,99.10
2018-12-17T18:03:44.938Z,99.10
2018-12-17T18:06:16.295Z,99.20
2018-12-17T18:08:42.543Z,99.20
2018-12-17T18:11:10.036Z,99.20
2018-12-17T18:13:37.541Z,99.20
2018-12-17T18:16:05.021Z,99.30
2018-12-17T18:18:32.546Z,99.30
2018-12-17T18:21:00.085Z,99.30
2018-12-17T18:23:27.531Z,99.30
2018-12-17T18:25:55.018Z,99.30
2018-12-17T18:28:22.489Z,99.40
2018-12-17T18:30:49.988Z,99.40
2018-12-17T18:33:17.598Z,99.40
2018-12-17T18:35:45.342Z,99.40
2018-12-17T18:38:12.983Z,99.40
2018-12-17T18:40:40.863Z,99.50
2018-12-17T18:43:08.751Z,99.50
2018-12-17T18:45:36.342Z,99.50
2018-12-17T18:48:04.066Z,99.50
2018-12-17T18:50:31.732Z,99.50
2018-12-17T18:52:59.385Z,99.60
2018-12-17T18:55:26.909Z,99.50
2018-12-17T18:57:54.495Z,99.60
2018-12-17T19:00:22.077Z,99.60
2018-12-17T19:02:49.568Z,99.70
2018-12-17T19:05:17.074Z,99.70
2018-12-17T19:07:44.570Z,99.70
2018-12-17T19:10:12.749Z,99.70
2018-12-17T19:12:40.961Z,99.70
2018-12-17T19:15:08.881Z,99.80
2018-12-17T19:17:37.127Z,99.80
2018-12-17T19:20:04.911Z,99.80
2018-12-17T19:22:32.606Z,99.90
2018-12-17T19:25:00.382Z,99.90
2018-12-17T19:27:27.931Z,99.90
2018-12-17T19:29:55.424Z,99.90
2018-12-17T19:32:23.226Z,99.90
2018-12-17T19:34:51.106Z,99.90
2018-12-17T19:37:18.606Z,99.90
2018-12-17T19:39:46.099Z,99.90
2018-12-17T19:42:13.648Z,99.90
2018-12-17T19:44:41.171Z,99.90
2018-12-17T19:47:08.940Z,99.90
2018-12-17T19:49:36.530Z,99.90
2018-12-17T19:52:04.039Z,99.90
2018-12-17T19:54:31.513Z,99.90
2018-12-17T19:56:59.161Z,99.90
2018-12-17T19:59:26.860Z,99.90
2018-12-17T20:01:54.960Z,99.90
2018-12-17T20:04:22.648Z,99.90
2018-12-17T20:06:50.209Z,99.90
2018-12-17T20:09:17.716Z,99.90
2018-12-17T20:11:45.403Z,99.90
2018-12-17T20:14:13.022Z,99.90
2018-12-17T20:16:40.962Z,99.90
2018-12-17T20:19:08.857Z,99.90
2018-12-17T20:21:37.557Z,99.90
2018-12-17T20:24:05.108Z,99.90
2018-12-17T20:26:32.841Z,99.90
2018-12-17T20:29:00.342Z,99.90
2018-12-17T20:31:27.899Z,99.90
2018-12-17T20:33:55.758Z,99.90
2018-12-17T20:36:23.405Z,99.90
2018-12-17T20:38:50.932Z,99.90
2018-12-17T20:41:18.417Z,99.90
2018-12-17T20:43:45.905Z,99.90
2018-12-17T20:46:13.671Z,99.90
2018-12-17T20:48:41.137Z,99.90
2018-12-17T20:51:08.961Z,99.90
2018-12-17T20:53:36.788Z,99.90
2018-12-17T20:56:04.397Z,99.90
2018-12-17T20:58:31.961Z,99.90
2018-12-17T21:00:59.827Z,99.90
2018-12-17T21:03:27.354Z,99.90
2018-12-17T21:05:54.878Z,99.90
2018-12-17T21:08:22.581Z,99.90
2018-12-17T21:10:50.035Z,99.90
2018-12-17T21:13:17.560Z,99.90
2018-12-17T21:15:45.093Z,99.90
2018-12-17T21:18:12.979Z,99.90
2018-12-17T21:20:40.613Z,99.90
2018-12-17T21:23:08.624Z,99.90
2018-12-17T21:25:36.123Z,99.90
2018-12-17T21:28:03.734Z,99.90
2018-12-17T21:30:31.230Z,99.90
2018-12-17T21:32:58.954Z,99.90
2018-12-17T21:35:26.472Z,99.90
2018-12-17T21:37:54.070Z,99.90
2018-12-17T21:40:22.101Z,99.90
2018-12-17T21:42:49.582Z,99.90
2018-12-17T21:45:17.131Z,99.90
2018-12-17T21:47:44.670Z,99.90
2018-12-17T21:50:12.358Z,99.90
2018-12-17T21:52:39.875Z,99.90
2018-12-17T21:55:07.877Z,99.90
2018-12-17T21:57:35.562Z,99.90
2018-12-17T22:00:04.180Z,99.90
2018-12-17T22:02:33.889Z,99.90
2018-12-17T22:05:01.633Z,99.90
2018-12-17T22:07:31.364Z,99.90
2018-12-17T22:09:59.029Z,99.90
2018-12-17T22:12:26.801Z,99.90
2018-12-17T22:15:01.501Z,99.90
2018-12-17T22:17:29.915Z,99.90
2018-12-17T22:19:57.411Z,99.90
2018-12-17T22:22:24.941Z,99.90
2018-12-17T22:24:52.849Z,99.90
2018-12-17T22:27:20.661Z,99.90
2018-12-17T22:29:48.325Z,99.90
2018-12-17T22:32:16.249Z,99.90
2018-12-17T22:34:44.039Z,99.90
2018-12-17T22:37:11.724Z,99.90
2018-12-17T22:39:39.264Z,99.90
2018-12-17T22:42:06.749Z,99.90
2018-12-17T22:44:34.532Z,99.90
2018-12-17T22:47:03.345Z,99.90
2018-12-17T22:49:32.108Z,99.90
2018-12-17T22:51:59.713Z,99.90
2018-12-17T22:54:27.227Z,99.90
2018-12-17T22:56:54.725Z,99.90
2018-12-17T22:59:22.438Z,99.90
2018-12-17T23:01:49.917Z,99.90
2018-12-17T23:04:17.521Z,99.90
2018-12-17T23:06:45.165Z,99.90
2018-12-17T23:09:11.936Z,99.90
2018-12-17T23:11:58.714Z,99.90
2018-12-17T23:14:37.677Z,99.90
2018-12-17T23:20:10.262Z,99.90
2018-12-17T23:22:42.345Z,99.90
2018-12-17T23:25:12.000Z,99.90
2018-12-17T23:27:47.817Z,99.90
2018-12-17T23:30:15.585Z,99.90
2018-12-17T23:32:43.075Z,99.90
2018-12-17T23:35:10.654Z,99.90
2018-12-17T23:37:38.187Z,99.90
2018-12-17T23:40:06.273Z,99.90
2018-12-17T23:42:33.921Z,99.90
2018-12-17T23:45:01.542Z,99.90
2018-12-17T23:47:29.078Z,99.90
2018-12-17T23:49:56.554Z,99.90
2018-12-17T23:52:24.131Z,99.90
2018-12-17T23:54:51.624Z,99.90
2018-12-17T23:57:19.109Z,99.90
2018-12-17T23:59:46.666Z,99.90
